This is the latest recevied weather packets stored in our database for station/object CA4LJZ-10. If no packets are shown the sender has not sent any weather packets the latest 10 day(s).
| Time | Temp. | Humidity | Pressure | Rain* | Wind** | Luminosity | Snow |
|---|---|---|---|---|---|---|---|
| 1778076973 | 18.33° C | 49% | 953.1 hPa | - | - | - | - |
| 1778076072 | 18.89° C | 48% | 953.1 hPa | - | - | - | - |
| 1778075170 | 20° C | 46% | 953.5 hPa | - | - | - | - |
| 1778074269 | 23.89° C | 37% | 953.4 hPa | - | - | - | - |
| 1778073368 | 26.67° C | 33% | 953.7 hPa | - | - | - | - |
| 1778072467 | 26.11° C | 34% | 953.7 hPa | - | - | - | - |
| 1778071566 | 23.89° C | 38% | 953.8 hPa | - | - | - | - |
| 1778070666 | 18.89° C | 48% | 953.6 hPa | - | - | - | - |
| 1778069765 | 17.22° C | 51% | 953.6 hPa | - | - | - | - |
| 1778068864 | 16.11° C | 55% | 953.5 hPa | - | - | - | - |
| 1778067963 | 15° C | 57% | 953.4 hPa | - | - | - | - |
| 1778067062 | 14.44° C | 59% | 953.4 hPa | - | - | - | - |
| 1778066161 | 14.44° C | 58% | 953 hPa | - | - | - | - |
| 1778065260 | 14.44° C | 59% | 952.8 hPa | - | - | - | - |
| 1778064359 | 14.44° C | 59% | 952.9 hPa | - | - | - | - |
| 1778063458 | 14.44° C | 59% | 952.7 hPa | - | - | - | - |
| 1778062558 | 14.44° C | 60% | 952.5 hPa | - | - | - | - |
| 1778061657 | 14.44° C | 59% | 952.6 hPa | - | - | - | - |
| 1778060756 | 14.44° C | 58% | 952.4 hPa | - | - | - | - |
| 1778059855 | 15° C | 58% | 951.9 hPa | - | - | - | - |
| 1778058954 | 15° C | 58% | 951.8 hPa | - | - | - | - |
| 1778058053 | 15.56° C | 58% | 951.6 hPa | - | - | - | - |
| 1778057152 | 15.56° C | 58% | 951.7 hPa | - | - | - | - |
| 1778056251 | 16.67° C | 58% | 951.7 hPa | - | - | - | - |
| 1778055374 | 15° C | 58% | 951.8 hPa | - | - | - | - |
* Rain since midnight (hover to see other rain measurements)
** Current wind speed in m/s (hover to see current wind gust speed)